.
WxDataArchive / Data Records for 2012-02-12
2012-02-11 February 2012 2012-02-13

Data Records for Sunday, 12 February 2012

Time	Temp	Chill	HIndex	Humid	Dewpt	 Wind 	HiWind	WindDir	Rain 	Barom 
-----	----	-----	------	-----	-----	------	------	-------	-----	----- 
00:00	15.2	15.2	15.2	63	4.9	1	5	248	0.00	30.296 
00:05	15.2	15.2	15.2	63	4.9	1	4	248	0.00	30.296 
00:10	15.1	15.1	15.1	63	4.8	1	5	248	0.00	30.296 
00:15	14.9	14.9	14.9	63	4.6	1	2	248	0.00	30.290 
00:20	14.8	14.8	14.8	63	4.5	1	3	248	0.00	30.290 
00:25	14.8	14.8	14.8	63	4.5	1	4	248	0.00	30.290 
00:30	14.8	14.8	14.8	63	4.5	1	4	248	0.00	30.290 
00:35	14.8	14.8	14.8	63	4.5	1	4	248	0.00	30.290 
00:40	14.8	14.8	14.8	63	4.5	1	4	248	0.00	30.290 
00:45	14.6	14.6	14.6	63	4.3	1	3	248	0.00	30.290 
00:50	14.6	14.6	14.6	63	4.3	1	4	248	0.00	30.290 
00:55	14.4	14.4	14.4	63	4.1	1	3	248	0.00	30.290 
01:00	14.1	14.1	14.1	63	3.9	1	4	248	0.00	30.289 
01:05	14.0	14.0	14.0	63	3.8	2	4	248	0.00	30.289 
01:10	13.8	13.8	13.8	64	3.9	1	3	248	0.00	30.289 
01:15	13.6	13.6	13.6	64	3.7	1	3	248	0.00	30.289 
01:20	13.5	13.5	13.5	64	3.6	1	4	248	0.00	30.289 
01:25	13.5	13.5	13.5	64	3.6	1	4	248	0.00	30.289 
01:30	13.5	13.5	13.5	64	3.6	1	3	248	0.00	30.287 
01:35	13.3	13.3	13.3	64	3.4	1	3	248	0.00	30.287 
01:40	13.3	13.3	13.3	64	3.4	1	5	248	0.00	30.287 
01:45	13.3	13.3	13.3	64	3.4	1	4	248	0.00	30.283 
01:50	13.3	13.3	13.3	65	3.8	1	4	248	0.00	30.283 
01:55	13.5	13.5	13.5	64	3.6	1	7	248	0.00	30.283 
02:00	13.5	13.5	13.5	64	3.6	2	6	248	0.00	30.286 
02:05	13.5	13.5	13.5	64	3.6	1	4	248	0.00	30.286 
02:10	13.5	13.5	13.5	64	3.6	1	4	248	0.00	30.286 
02:15	13.5	13.5	13.5	64	3.6	1	4	248	0.00	30.281 
02:20	13.5	13.5	13.5	64	3.6	1	3	248	0.00	30.281 
02:25	13.5	13.5	13.5	64	3.6	1	3	248	0.00	30.281 
02:30	13.5	13.5	13.5	64	3.6	1	3	248	0.00	30.286 
02:35	13.5	13.5	13.5	65	4.0	1	3	248	0.00	30.286 
02:40	13.6	13.6	13.6	65	4.1	1	5	248	0.00	30.286 
02:45	13.8	13.8	13.8	65	4.2	1	4	248	0.00	30.281 
02:50	14.0	14.0	14.0	65	4.4	2	5	248	0.00	30.281 
02:55	14.0	14.0	14.0	65	4.4	1	4	248	0.00	30.281 
03:00	14.0	14.0	14.0	64	4.1	1	4	248	0.00	30.273 
03:05	14.1	14.1	14.1	65	4.5	2	4	248	0.00	30.273 
03:10	14.1	14.1	14.1	65	4.5	2	4	270	0.00	30.273 
03:15	14.3	14.3	14.3	65	4.7	2	3	248	0.00	30.273 
03:20	14.4	14.4	14.4	65	4.8	2	4	248	0.00	30.273 
03:25	14.6	14.6	14.6	65	5.0	1	3	248	0.00	30.273 
03:30	14.8	14.8	14.8	65	5.2	1	4	248	0.00	30.269 
03:35	14.8	14.8	14.8	66	5.5	2	4	248	0.00	30.269 
03:40	14.9	14.9	14.9	66	5.6	2	3	248	0.00	30.269 
03:45	15.1	15.1	15.1	66	5.8	1	3	248	0.00	30.269 
03:50	15.1	15.1	15.1	66	5.8	2	4	248	0.00	30.269 
03:55	15.2	15.2	15.2	66	5.9	1	4	248	0.00	30.269 
04:00	15.2	15.2	15.2	66	5.9	2	4	248	0.00	30.268 
04:05	15.2	15.2	15.2	66	5.9	1	5	248	0.00	30.268 
04:10	15.1	15.1	15.1	65	5.5	2	5	248	0.00	30.268 
04:15	15.1	15.1	15.1	65	5.5	1	5	248	0.00	30.263 
04:20	15.1	15.1	15.1	65	5.5	1	4	248	0.00	30.263 
04:25	15.1	15.1	15.1	65	5.5	2	4	248	0.00	30.263 
04:30	15.1	15.1	15.1	66	5.8	1	3	248	0.00	30.262 
04:35	15.2	15.2	15.2	66	5.9	1	3	248	0.00	30.262 
04:40	15.2	15.2	15.2	66	5.9	2	5	248	0.00	30.262 
04:45	15.4	15.4	15.4	66	6.1	1	3	248	0.00	30.268 
04:50	15.6	15.6	15.6	66	6.3	2	5	248	0.00	30.268 
04:55	15.6	15.6	15.6	66	6.3	2	5	248	0.00	30.268 
05:00	15.6	15.6	15.6	65	6.0	2	4	248	0.00	30.262 
05:05	15.7	15.7	15.7	65	6.1	2	5	248	0.00	30.262 
05:10	15.7	15.7	15.7	65	6.1	2	5	248	0.00	30.262 
05:15	15.9	15.9	15.9	65	6.2	2	3	248	0.00	30.265 
05:20	15.9	15.9	15.9	64	5.9	2	6	248	0.00	30.265 
05:25	16.1	16.1	16.1	65	6.4	2	5	248	0.00	30.265 
05:30	15.9	15.9	15.9	64	5.9	2	5	248	0.00	30.257 
05:35	15.9	15.9	15.9	64	5.9	2	6	248	0.00	30.257 
05:40	15.9	15.9	15.9	64	5.9	2	5	248	0.00	30.257 
05:45	15.9	15.9	15.9	64	5.9	2	6	248	0.00	30.254 
05:50	15.9	15.9	15.9	64	5.9	2	5	248	0.00	30.254 
05:55	16.1	16.1	16.1	64	6.1	2	5	248	0.00	30.254 
06:00	16.1	16.1	16.1	64	6.1	2	4	248	0.00	30.252 
06:05	16.2	16.2	16.2	65	6.5	1	4	248	0.00	30.252 
06:10	16.2	16.2	16.2	64	6.2	2	6	248	0.00	30.252 
06:15	16.2	16.2	16.2	65	6.5	1	3	248	0.00	30.255 
06:20	16.4	16.4	16.4	65	6.7	1	3	248	0.00	30.255 
06:25	16.4	16.4	16.4	65	6.7	2	4	248	0.00	30.255 
06:30	16.5	16.5	16.5	65	6.8	2	4	248	0.00	30.258 
06:35	16.5	16.5	16.5	65	6.8	2	5	270	0.00	30.258 
06:40	16.7	16.7	16.7	65	7.0	1	3	248	0.00	30.258 
06:45	16.7	16.7	16.7	65	7.0	2	5	248	0.00	30.257 
06:50	16.7	16.7	16.7	65	7.0	2	5	270	0.00	30.257 
06:55	16.7	16.7	16.7	64	6.7	2	4	270	0.00	30.257 
07:00	16.7	16.7	16.7	65	7.0	2	4	248	0.00	30.259 
07:05	16.9	16.9	16.9	65	7.2	2	5	248	0.00	30.259 
07:10	16.7	16.7	16.7	65	7.0	2	5	248	0.00	30.259 
07:15	16.7	16.7	16.7	64	6.7	2	6	248	0.00	30.265 
07:20	16.5	16.5	16.5	64	6.5	2	4	248	0.00	30.265 
07:25	16.4	16.4	16.4	64	6.4	1	6	270	0.00	30.265 
07:30	16.2	16.2	16.2	64	6.2	2	3	248	0.00	30.264 
07:35	16.1	16.1	16.1	64	6.1	1	4	248	0.00	30.264 
07:40	15.9	15.9	15.9	64	5.9	2	6	248	0.00	30.264 
07:45	15.6	15.6	15.6	63	5.3	2	5	248	0.00	30.269 
07:50	15.6	15.6	15.6	64	5.6	1	3	248	0.00	30.269 
07:55	15.4	15.4	15.4	64	5.4	1	3	248	0.00	30.269 
08:00	15.4	15.4	15.4	64	5.4	2	5	248	0.00	30.275 
08:05	15.2	15.2	15.2	64	5.2	1	3	248	0.00	30.275 
08:10	15.1	15.1	15.1	64	5.1	2	4	248	0.00	30.275 
08:15	15.1	15.1	15.1	64	5.1	1	4	248	0.00	30.277 
08:20	14.9	14.9	14.9	64	5.0	1	4	248	0.00	30.277 
08:25	14.9	14.9	14.9	64	5.0	2	5	248	0.00	30.277 
08:30	14.9	14.9	14.9	64	5.0	2	4	248	0.00	30.284 
08:35	15.1	15.1	15.1	64	5.1	2	7	248	0.00	30.284 
08:40	15.1	15.1	15.1	63	4.8	2	6	248	0.00	30.284 
08:45	15.1	15.1	15.1	63	4.8	2	6	270	0.00	30.291 
08:50	15.2	15.2	15.2	63	4.9	2	5	248	0.00	30.291 
08:55	15.2	15.2	15.2	63	4.9	2	5	248	0.00	30.291 
09:00	15.2	15.2	15.2	63	4.9	2	5	248	0.00	30.294 
09:05	15.4	15.4	15.4	63	5.1	2	5	248	0.00	30.294 
09:10	15.4	15.4	15.4	63	5.1	2	4	270	0.00	30.294 
09:15	15.7	15.7	15.7	63	5.4	2	6	248	0.00	30.292 
09:20	15.9	15.9	15.9	63	5.6	2	6	248	0.00	30.292 
09:25	16.1	16.1	16.1	63	5.8	2	7	248	0.00	30.292 
09:30	16.4	16.4	16.4	63	6.0	3	6	248	0.00	30.293 
09:35	16.5	16.5	16.5	62	5.8	2	5	248	0.00	30.293 
09:40	16.7	16.7	16.7	63	6.3	2	5	270	0.00	30.293 
09:45	17.0	17.0	17.0	63	6.6	2	6	248	0.00	30.290 
09:50	17.3	17.3	17.3	62	6.5	3	5	270	0.00	30.290 
09:55	17.5	17.5	17.5	62	6.7	3	9	248	0.00	30.290 
10:00	17.8	17.8	17.8	62	7.0	3	5	248	0.00	30.298 
10:05	18.0	18.0	18.0	62	7.2	3	6	248	0.00	30.298 
10:10	18.4	18.4	18.4	63	7.9	2	5	270	0.00	30.298 
10:15	19.1	19.1	19.1	63	8.6	2	5	248	0.00	30.300 
10:20	19.5	19.5	19.5	62	8.6	3	7	270	0.00	30.300 
10:25	20.2	20.2	20.2	62	9.3	2	5	270	0.00	30.300 
10:30	20.3	20.3	20.3	61	9.0	3	5	270	0.00	30.300 
10:35	20.6	20.6	20.6	61	9.3	3	7	270	0.00	30.300 
10:40	21.1	21.1	21.1	61	9.8	2	5	248	0.00	30.300 
10:45	21.4	21.4	21.4	61	10.1	3	6	270	0.00	30.295 
10:50	21.8	21.8	21.8	61	10.4	3	6	248	0.00	30.295 
10:55	22.1	22.1	22.1	61	10.7	3	7	270	0.00	30.295 
11:00	22.1	16.6	22.1	61	10.7	4	7	270	0.00	30.300 
11:05	22.4	22.4	22.4	61	11.0	3	6	248	0.00	30.300 
11:10	22.9	22.9	22.9	61	11.5	3	6	248	0.00	30.300 
11:15	23.3	23.3	23.3	62	12.2	3	6	248	0.00	30.298 
11:20	23.6	23.6	23.6	62	12.5	3	6	270	0.00	30.298 
11:25	23.8	23.8	23.8	61	12.3	3	9	270	0.00	30.298 
11:30	23.5	18.3	23.5	61	12.1	4	9	270	0.00	30.293 
11:35	23.6	18.4	23.6	62	12.5	4	7	270	0.00	30.293 
11:40	23.9	23.9	23.9	62	12.8	3	8	270	0.00	30.293 
11:45	24.1	19.0	24.1	61	12.6	4	6	270	0.00	30.294 
11:50	24.1	19.0	24.1	61	12.6	4	6	270	0.00	30.294 
11:55	24.4	24.4	24.4	62	13.3	3	7	270	0.00	30.294 
12:00	24.7	19.6	24.7	61	13.2	4	7	270	0.00	30.283 
12:05	24.5	24.5	24.5	61	13.0	3	6	270	0.00	30.283 
12:10	24.7	19.6	24.7	60	12.8	4	7	292	0.00	30.283 
12:15	24.7	19.6	24.7	61	13.2	4	6	270	0.00	30.285 
12:20	25.1	25.1	25.1	61	13.6	3	6	270	0.00	30.285 
12:25	25.4	25.4	25.4	60	13.5	3	6	270	0.00	30.285 
12:30	25.4	20.5	25.4	59	13.1	4	9	270	0.00	30.280 
12:35	25.3	25.3	25.3	59	13.0	3	7	270	0.00	30.280 
12:40	25.6	20.7	25.6	58	12.9	4	7	270	0.00	30.280 
12:45	25.6	20.7	25.6	58	12.9	4	7	270	0.00	30.271 
12:50	25.6	20.7	25.6	58	12.9	4	7	270	0.00	30.271 
12:55	25.6	25.6	25.6	58	12.9	3	5	270	0.00	30.271 
13:00	26.0	26.0	26.0	59	13.7	3	7	270	0.00	30.268 
13:05	26.1	26.1	26.1	58	13.4	3	7	270	0.00	30.268 
13:10	26.3	26.3	26.3	58	13.6	3	6	270	0.00	30.268 
13:15	26.4	26.4	26.4	58	13.7	3	5	270	0.00	30.264 
13:20	26.4	26.4	26.4	57	13.3	3	6	270	0.00	30.264 
13:25	26.4	21.6	26.4	57	13.3	4	7	270	0.00	30.264 
13:30	26.6	21.8	26.6	58	13.8	4	7	270	0.00	30.264 
13:35	26.7	26.7	26.7	57	13.5	3	5	248	0.00	30.264 
13:40	26.9	26.9	26.9	56	13.3	3	6	270	0.00	30.264 
13:45	26.6	26.6	26.6	57	13.4	3	6	270	0.00	30.257 
13:50	26.6	26.6	26.6	57	13.4	3	7	292	0.00	30.257 
13:55	26.9	26.9	26.9	57	13.7	3	5	270	0.00	30.257 
14:00	27.2	27.2	27.2	57	14.0	3	6	270	0.00	30.255 
14:05	27.0	22.3	27.0	55	13.0	4	7	270	0.00	30.255 
14:10	27.0	27.0	27.0	57	13.8	3	7	248	0.00	30.255 
14:15	27.2	27.2	27.2	55	13.2	3	6	270	0.00	30.254 
14:20	27.3	27.3	27.3	55	13.3	3	9	270	0.00	30.254 
14:25	27.3	22.6	27.3	56	13.7	4	7	270	0.00	30.254 
14:30	27.5	22.9	27.5	55	13.5	4	6	270	0.00	30.250 
14:35	27.3	22.6	27.3	55	13.3	4	6	270	0.00	30.250 
14:40	27.6	23.0	27.6	54	13.2	4	6	270	0.00	30.250 
14:45	27.8	27.8	27.8	55	13.8	3	6	248	0.00	30.249 
14:50	28.1	28.1	28.1	54	13.6	3	6	248	0.00	30.249 
14:55	28.1	23.6	28.1	54	13.6	4	10	270	0.00	30.249 
15:00	28.1	23.6	28.1	54	13.6	4	7	270	0.00	30.250 
15:05	28.2	23.7	28.2	54	13.7	4	8	270	0.00	30.250 
15:10	28.2	23.7	28.2	54	13.7	4	9	270	0.00	30.250 
15:15	28.1	23.6	28.1	54	13.6	4	14	270	0.00	30.253 
15:20	28.4	28.4	28.4	55	14.3	3	6	270	0.00	30.253 
15:25	28.7	28.7	28.7	53	13.8	3	7	270	0.00	30.253 
15:30	28.7	28.7	28.7	54	14.2	3	6	270	0.00	30.252 
15:35	28.4	23.9	28.4	54	13.9	4	7	270	0.00	30.252 
15:40	28.7	28.7	28.7	55	14.6	3	5	270	0.00	30.252 
15:45	28.8	28.8	28.8	54	14.3	3	8	270	0.00	30.251 
15:50	28.5	28.5	28.5	53	13.6	3	6	315	0.00	30.251 
15:55	28.5	28.5	28.5	54	14.0	3	6	270	0.00	30.251 
16:00	28.5	24.0	28.5	53	13.6	4	6	270	0.00	30.254 
16:05	28.7	24.3	28.7	53	13.8	4	6	270	0.00	30.254 
16:10	28.5	24.0	28.5	53	13.6	4	7	270	0.00	30.254 
16:15	28.4	28.4	28.4	52	13.0	3	6	248	0.00	30.254 
16:20	28.4	28.4	28.4	52	13.0	3	5	270	0.00	30.254 
16:25	28.4	23.9	28.4	51	12.6	4	7	270	0.00	30.254 
16:30	28.4	23.9	28.4	51	12.6	4	9	270	0.00	30.251 
16:35	28.5	28.5	28.5	52	13.1	3	5	270	0.00	30.251 
16:40	28.5	28.5	28.5	51	12.7	3	7	270	0.00	30.251 
16:45	28.4	28.4	28.4	51	12.6	3	7	270	0.00	30.249 
16:50	28.5	28.5	28.5	52	13.1	2	4	270	0.00	30.249 
16:55	28.5	28.5	28.5	51	12.7	3	7	270	0.00	30.249 
17:00	28.4	23.9	28.4	51	12.6	4	9	270	0.00	30.250 
17:05	28.4	28.4	28.4	51	12.6	3	5	270	0.00	30.250 
17:10	28.4	28.4	28.4	51	12.6	2	4	248	0.00	30.250 
17:15	28.4	28.4	28.4	50	12.2	3	6	248	0.00	30.249 
17:20	28.2	28.2	28.2	50	12.0	2	5	248	0.00	30.249 
17:25	28.2	28.2	28.2	50	12.0	3	5	248	0.00	30.249 
17:30	28.1	28.1	28.1	50	11.9	3	9	270	0.00	30.249 
17:35	27.9	27.9	27.9	50	11.7	3	5	270	0.00	30.249 
17:40	27.9	27.9	27.9	50	11.7	3	5	270	0.00	30.249 
17:45	27.8	27.8	27.8	50	11.6	3	6	270	0.00	30.249 
17:50	27.6	27.6	27.6	50	11.4	2	4	270	0.00	30.249 
17:55	27.6	27.6	27.6	50	11.4	3	5	270	0.00	30.249 
18:00	27.5	27.5	27.5	50	11.3	2	5	248	0.00	30.251 
18:05	27.3	27.3	27.3	50	11.1	1	4	248	0.00	30.251 
18:10	27.2	27.2	27.2	50	11.1	2	5	248	0.00	30.251 
18:15	27.0	27.0	27.0	51	11.3	1	3	248	0.00	30.251 
18:20	27.0	27.0	27.0	50	10.9	2	3	248	0.00	30.251 
18:25	26.9	26.9	26.9	50	10.8	1	3	248	0.00	30.251 
18:30	26.9	26.9	26.9	51	11.2	1	3	248	0.00	30.254 
18:35	26.7	26.7	26.7	50	10.6	1	4	248	0.00	30.254 
18:40	26.7	26.7	26.7	50	10.6	1	4	248	0.00	30.254 
18:45	26.6	26.6	26.6	51	10.9	1	2	248	0.00	30.254 
18:50	26.4	26.4	26.4	51	10.8	0	3	248	0.00	30.254 
18:55	26.3	26.3	26.3	52	11.1	0	3	248	0.00	30.254 
19:00	26.1	26.1	26.1	53	11.3	0	3	248	0.00	30.256 
19:05	26.0	26.0	26.0	54	11.7	1	2	248	0.00	30.256 
19:10	25.8	25.8	25.8	54	11.5	1	4	248	0.00	30.256 
19:15	25.8	25.8	25.8	54	11.5	1	3	248	0.00	30.257 
19:20	25.7	25.7	25.7	54	11.4	1	3	248	0.00	30.257 
19:25	25.7	25.7	25.7	54	11.4	1	4	248	0.00	30.257 
19:30	25.7	25.7	25.7	54	11.4	1	3	248	0.00	30.261 
19:35	25.8	25.8	25.8	54	11.5	1	3	248	0.00	30.261 
19:40	25.8	25.8	25.8	53	11.1	1	3	248	0.00	30.261 
19:45	25.8	25.8	25.8	53	11.1	1	5	248	0.00	30.264 
19:50	25.8	25.8	25.8	54	11.5	1	2	248	0.00	30.264 
19:55	25.8	25.8	25.8	53	11.1	1	4	248	0.00	30.264 
20:00	26.0	26.0	26.0	53	11.2	1	3	248	0.00	30.261 
20:05	26.0	26.0	26.0	54	11.7	1	2	248	0.00	30.261 
20:10	25.8	25.8	25.8	54	11.5	1	4	248	0.00	30.261 
20:15	25.8	25.8	25.8	54	11.5	1	5	248	0.00	30.261 
20:20	25.8	25.8	25.8	54	11.5	0	2	248	0.00	30.261 
20:25	25.8	25.8	25.8	54	11.5	1	3	248	0.00	30.261 
20:30	25.8	25.8	25.8	55	11.9	1	3	248	0.00	30.260 
20:35	25.8	25.8	25.8	55	11.9	1	3	248	0.00	30.260 
20:40	25.8	25.8	25.8	55	11.9	1	4	248	0.00	30.260 
20:45	25.8	25.8	25.8	56	12.3	1	3	248	0.00	30.258 
20:50	25.8	25.8	25.8	56	12.3	1	3	270	0.00	30.258 
20:55	25.7	25.7	25.7	56	12.2	1	3	270	0.00	30.258 
21:00	25.7	25.7	25.7	57	12.6	1	4	248	0.00	30.254 
21:05	25.6	25.6	25.6	57	12.5	0	2	248	0.00	30.254 
21:10	25.6	25.6	25.6	58	12.9	1	3	248	0.00	30.254 
21:15	25.4	25.4	25.4	58	12.7	1	4	270	0.00	30.250 
21:20	25.4	25.4	25.4	58	12.7	1	2	270	0.00	30.250 
21:25	25.3	25.3	25.3	59	13.0	1	2	270	0.00	30.250 
21:30	25.3	25.3	25.3	59	13.0	1	3	248	0.00	30.250 
21:35	25.3	25.3	25.3	60	13.4	1	3	248	0.00	30.250 
21:40	25.3	25.3	25.3	61	13.8	1	4	248	0.00	30.250 
21:45	25.3	25.3	25.3	61	13.8	1	4	248	0.00	30.249 
21:50	25.3	25.3	25.3	62	14.1	1	3	248	0.00	30.249 
21:55	25.3	25.3	25.3	62	14.1	1	3	248	0.00	30.249 
22:00	25.3	25.3	25.3	63	14.5	1	3	248	0.00	30.248 
22:05	25.3	25.3	25.3	63	14.5	1	3	248	0.00	30.248 
22:10	25.4	25.4	25.4	64	14.9	2	5	270	0.00	30.248 
22:15	25.4	25.4	25.4	64	14.9	2	4	248	0.00	30.239 
22:20	25.6	25.6	25.6	64	15.1	1	4	248	0.00	30.239 
22:25	25.6	25.6	25.6	64	15.1	1	5	248	0.00	30.239 
22:30	25.6	25.6	25.6	65	15.5	1	4	248	0.00	30.236 
22:35	25.6	25.6	25.6	65	15.5	1	4	248	0.00	30.236 
22:40	25.7	25.7	25.7	65	15.6	2	3	248	0.00	30.236 
22:45	25.7	25.7	25.7	65	15.6	1	3	270	0.00	30.235 
22:50	25.8	25.8	25.8	65	15.7	2	4	248	0.00	30.235 
22:55	25.8	25.8	25.8	65	15.7	2	5	248	0.00	30.235 
23:00	26.0	26.0	26.0	64	15.5	2	5	248	0.00	30.234 
23:05	26.0	26.0	26.0	65	15.9	2	4	248	0.00	30.234 
23:10	25.8	25.8	25.8	65	15.7	2	4	248	0.00	30.234 
23:15	25.8	25.8	25.8	65	15.7	2	4	248	0.00	30.233 
23:20	25.8	25.8	25.8	65	15.7	2	4	248	0.00	30.233 
23:25	25.8	25.8	25.8	65	15.7	2	5	248	0.00	30.233 
23:30	25.7	25.7	25.7	65	15.6	3	6	248	0.00	30.229 
23:35	25.7	25.7	25.7	65	15.6	2	5	248	0.00	30.229 
23:40	25.7	25.7	25.7	65	15.6	2	5	248	0.00	30.229 
23:45	25.6	25.6	25.6	65	15.5	2	4	248	0.00	30.225 
23:50	25.6	25.6	25.6	65	15.5	2	4	248	0.00	30.225 
23:55	25.4	25.4	25.4	65	15.3	1	4	248	0.00	30.225 

CoCoRaHS
IN-AL-39
A2 Web Hosting
Creative Commons License
GoDaddy
search engine by freefind advanced

loaded 2018-11-20 08:13:04 • last modified 2010-11-18 10:43:29
Privacy PolicyDisclaimer
• wx.awcolley.com is powered by PmWiki v.2002016 •
• all content (unless otherwise noted) © 2018 A W Colley